sensor_id;sensor_type;location;lat;lon;timestamp;pressure;altitude;pressure_sealevel;temperature
77728;BMP280;68312;53.502;10.030;2023-10-31T00:00:13;98976.47;;;11.48
77728;BMP280;68312;53.502;10.030;2023-10-31T00:02:38;98980.63;;;11.49
77728;BMP280;68312;53.502;10.030;2023-10-31T00:05:04;98971.22;;;11.48
77728;BMP280;68312;53.502;10.030;2023-10-31T00:07:30;98966.72;;;11.49
77728;BMP280;68312;53.502;10.030;2023-10-31T00:09:55;98950.59;;;11.50
77728;BMP280;68312;53.502;10.030;2023-10-31T00:12:21;98946.09;;;11.51
77728;BMP280;68312;53.502;10.030;2023-10-31T00:14:46;98950.25;;;11.52
77728;BMP280;68312;53.502;10.030;2023-10-31T00:17:11;98954.72;;;11.51
77728;BMP280;68312;53.502;10.030;2023-10-31T00:19:37;98947.63;;;11.52
77728;BMP280;68312;53.502;10.030;2023-10-31T00:22:02;98937.47;;;11.50
77728;BMP280;68312;53.502;10.030;2023-10-31T00:24:28;98928.44;;;11.51
77728;BMP280;68312;53.502;10.030;2023-10-31T00:26:53;98929.16;;;11.48
77728;BMP280;68312;53.502;10.030;2023-10-31T00:29:19;98943.81;;;11.49
77728;BMP280;68312;53.502;10.030;2023-10-31T00:31:44;98939.69;;;11.48
77728;BMP280;68312;53.502;10.030;2023-10-31T00:34:10;98945.34;;;11.50
77728;BMP280;68312;53.502;10.030;2023-10-31T00:36:35;98937.47;;;11.50
77728;BMP280;68312;53.502;10.030;2023-10-31T00:39:00;98937.88;;;11.52
77728;BMP280;68312;53.502;10.030;2023-10-31T00:41:26;98921.69;;;11.50
77728;BMP280;68312;53.502;10.030;2023-10-31T00:43:51;98927.00;;;11.54
77728;BMP280;68312;53.502;10.030;2023-10-31T00:46:16;98924.38;;;11.54
77728;BMP280;68312;53.502;10.030;2023-10-31T00:48:42;98917.63;;;11.56
77728;BMP280;68312;53.502;10.030;2023-10-31T00:51:07;98908.19;;;11.55
77728;BMP280;68312;53.502;10.030;2023-10-31T00:53:33;98909.69;;;11.53
77728;BMP280;68312;53.502;10.030;2023-10-31T00:55:58;98911.97;;;11.54
77728;BMP280;68312;53.502;10.030;2023-10-31T00:58:23;98902.94;;;11.55
77728;BMP280;68312;53.502;10.030;2023-10-31T01:00:49;98899.22;;;11.56
77728;BMP280;68312;53.502;10.030;2023-10-31T01:03:14;98889.06;;;11.55
77728;BMP280;68312;53.502;10.030;2023-10-31T01:05:40;98891.69;;;11.55
77728;BMP280;68312;53.502;10.030;2023-10-31T01:08:05;98887.56;;;11.54
77728;BMP280;68312;53.502;10.030;2023-10-31T01:10:31;98884.16;;;11.53
77728;BMP280;68312;53.502;10.030;2023-10-31T01:12:56;98877.06;;;11.54
77728;BMP280;68312;53.502;10.030;2023-10-31T01:15:22;98874.78;;;11.52
77728;BMP280;68312;53.502;10.030;2023-10-31T01:17:47;98873.66;;;11.53
77728;BMP280;68312;53.502;10.030;2023-10-31T01:20:12;98873.31;;;11.55
77728;BMP280;68312;53.502;10.030;2023-10-31T01:22:38;98866.91;;;11.56
77728;BMP280;68312;53.502;10.030;2023-10-31T01:25:04;98866.13;;;11.55
77728;BMP280;68312;53.502;10.030;2023-10-31T01:27:30;98856.78;;;11.58
77728;BMP280;68312;53.502;10.030;2023-10-31T01:29:55;98851.16;;;11.56
77728;BMP280;68312;53.502;10.030;2023-10-31T01:32:20;98853.41;;;11.57
77728;BMP280;68312;53.502;10.030;2023-10-31T01:34:46;98842.88;;;11.57
77728;BMP280;68312;53.502;10.030;2023-10-31T01:37:11;98850.03;;;11.57
77728;BMP280;68312;53.502;10.030;2023-10-31T01:39:38;98841.41;;;11.59
77728;BMP280;68312;53.502;10.030;2023-10-31T01:42:04;98839.91;;;11.59
77728;BMP280;68312;53.502;10.030;2023-10-31T01:44:30;98839.91;;;11.59
77728;BMP280;68312;53.502;10.030;2023-10-31T01:46:55;98844.03;;;11.59
77728;BMP280;68312;53.502;10.030;2023-10-31T01:49:21;98833.50;;;11.59
77728;BMP280;68312;53.502;10.030;2023-10-31T01:51:47;98824.88;;;11.59
77728;BMP280;68312;53.502;10.030;2023-10-31T01:54:13;98830.88;;;11.59
77728;BMP280;68312;53.502;10.030;2023-10-31T01:56:40;98820.75;;;11.58
77728;BMP280;68312;53.502;10.030;2023-10-31T01:59:07;98814.38;;;11.59
77728;BMP280;68312;53.502;10.030;2023-10-31T02:01:37;98809.84;;;11.59
77728;BMP280;68312;53.502;10.030;2023-10-31T02:04:05;98801.63;;;11.61
77728;BMP280;68312;53.502;10.030;2023-10-31T02:06:31;98801.22;;;11.59
77728;BMP280;68312;53.502;10.030;2023-10-31T02:08:56;98800.88;;;11.60
77728;BMP280;68312;53.502;10.030;2023-10-31T02:11:22;98781.69;;;11.57
77728;BMP280;68312;53.502;10.030;2023-10-31T02:13:47;98773.44;;;11.58
77728;BMP280;68312;53.502;10.030;2023-10-31T02:16:12;98776.47;;;11.60
77728;BMP280;68312;53.502;10.030;2023-10-31T02:18:38;98771.22;;;11.60
77728;BMP280;68312;53.502;10.030;2023-10-31T02:21:04;98769.31;;;11.60
77728;BMP280;68312;53.502;10.030;2023-10-31T02:23:29;98770.06;;;11.61
77728;BMP280;68312;53.502;10.030;2023-10-31T02:25:55;98744.91;;;11.60
77728;BMP280;68312;53.502;10.030;2023-10-31T02:28:20;98741.16;;;11.61
77728;BMP280;68312;53.502;10.030;2023-10-31T02:30:46;98741.16;;;11.61
77728;BMP280;68312;53.502;10.030;2023-10-31T02:33:11;98734.03;;;11.61
77728;BMP280;68312;53.502;10.030;2023-10-31T02:35:36;98733.28;;;11.61
77728;BMP280;68312;53.502;10.030;2023-10-31T02:38:02;98732.13;;;11.62
77728;BMP280;68312;53.502;10.030;2023-10-31T02:40:27;98725.00;;;11.62
77728;BMP280;68312;53.502;10.030;2023-10-31T02:42:53;98720.88;;;11.61
77728;BMP280;68312;53.502;10.030;2023-10-31T02:45:18;98719.00;;;11.62
77728;BMP280;68312;53.502;10.030;2023-10-31T02:47:44;98719.00;;;11.62
77728;BMP280;68312;53.502;10.030;2023-10-31T02:50:09;98707.34;;;11.63
77728;BMP280;68312;53.502;10.030;2023-10-31T02:52:35;98703.59;;;11.64
77728;BMP280;68312;53.502;10.030;2023-10-31T02:55:01;98699.88;;;11.65
77728;BMP280;68312;53.502;10.030;2023-10-31T02:57:27;98694.25;;;11.66
77728;BMP280;68312;53.502;10.030;2023-10-31T02:59:52;98691.63;;;11.66
77728;BMP280;68312;53.502;10.030;2023-10-31T03:02:18;98689.00;;;11.66
77728;BMP280;68312;53.502;10.030;2023-10-31T03:04:43;98690.84;;;11.66
77728;BMP280;68312;53.502;10.030;2023-10-31T03:07:09;98685.22;;;11.67
77728;BMP280;68312;53.502;10.030;2023-10-31T03:09:34;98681.47;;;11.65
77728;BMP280;68312;53.502;10.030;2023-10-31T03:11:59;98685.97;;;11.68
77728;BMP280;68312;53.502;10.030;2023-10-31T03:14:25;98676.97;;;11.69
77728;BMP280;68312;53.502;10.030;2023-10-31T03:16:51;98680.34;;;11.69
77728;BMP280;68312;53.502;10.030;2023-10-31T03:19:16;98678.44;;;11.70
77728;BMP280;68312;53.502;10.030;2023-10-31T03:21:41;98676.59;;;11.70
77728;BMP280;68312;53.502;10.030;2023-10-31T03:24:07;98663.81;;;11.69
77728;BMP280;68312;53.502;10.030;2023-10-31T03:26:32;98657.41;;;11.70
77728;BMP280;68312;53.502;10.030;2023-10-31T03:28:58;98660.44;;;11.72
77728;BMP280;68312;53.502;10.030;2023-10-31T03:31:24;98661.97;;;11.73
77728;BMP280;68312;53.502;10.030;2023-10-31T03:33:49;98659.72;;;11.75
77728;BMP280;68312;53.502;10.030;2023-10-31T03:36:15;98651.84;;;11.75
77728;BMP280;68312;53.502;10.030;2023-10-31T03:38:40;98649.22;;;11.75
77728;BMP280;68312;53.502;10.030;2023-10-31T03:41:06;98648.06;;;11.76
77728;BMP280;68312;53.502;10.030;2023-10-31T03:43:32;98643.53;;;11.76
77728;BMP280;68312;53.502;10.030;2023-10-31T03:45:57;98640.91;;;11.76
77728;BMP280;68312;53.502;10.030;2023-10-31T03:48:23;98633.81;;;11.77
77728;BMP280;68312;53.502;10.030;2023-10-31T03:50:48;98638.69;;;11.78
77728;BMP280;68312;53.502;10.030;2023-10-31T03:53:14;98631.94;;;11.77
77728;BMP280;68312;53.502;10.030;2023-10-31T03:55:40;98630.44;;;11.80
77728;BMP280;68312;53.502;10.030;2023-10-31T03:58:05;98626.69;;;11.84
77728;BMP280;68312;53.502;10.030;2023-10-31T04:00:31;98629.69;;;11.83
77728;BMP280;68312;53.502;10.030;2023-10-31T04:02:56;98619.53;;;11.85
77728;BMP280;68312;53.502;10.030;2023-10-31T04:05:22;98618.44;;;11.86
77728;BMP280;68312;53.502;10.030;2023-10-31T04:07:48;98609.41;;;11.87
77728;BMP280;68312;53.502;10.030;2023-10-31T04:10:14;98612.44;;;11.88
77728;BMP280;68312;53.502;10.030;2023-10-31T04:12:40;98606.03;;;11.89
77728;BMP280;68312;53.502;10.030;2023-10-31T04:15:07;98595.13;;;11.91
77728;BMP280;68312;53.502;10.030;2023-10-31T04:17:34;98593.63;;;11.93
77728;BMP280;68312;53.502;10.030;2023-10-31T04:19:59;98595.16;;;11.94
77728;BMP280;68312;53.502;10.030;2023-10-31T04:22:34;98601.91;;;11.95
77728;BMP280;68312;53.502;10.030;2023-10-31T04:24:59;98594.41;;;11.94
77728;BMP280;68312;53.502;10.030;2023-10-31T04:27:24;98600.78;;;11.96
77728;BMP280;68312;53.502;10.030;2023-10-31T04:29:50;98598.16;;;11.96
77728;BMP280;68312;53.502;10.030;2023-10-31T04:32:15;98592.88;;;11.96
77728;BMP280;68312;53.502;10.030;2023-10-31T04:34:40;98591.03;;;12.00
77728;BMP280;68312;53.502;10.030;2023-10-31T04:37:06;98594.41;;;12.08
77728;BMP280;68312;53.502;10.030;2023-10-31T04:39:31;98594.41;;;12.08
77728;BMP280;68312;53.502;10.030;2023-10-31T04:41:57;98580.91;;;12.09
77728;BMP280;68312;53.502;10.030;2023-10-31T04:44:23;98577.50;;;12.12
77728;BMP280;68312;53.502;10.030;2023-10-31T04:46:48;98580.50;;;12.14
77728;BMP280;68312;53.502;10.030;2023-10-31T04:49:13;98568.88;;;12.15
77728;BMP280;68312;53.502;10.030;2023-10-31T04:51:40;98567.00;;;12.16
77728;BMP280;68312;53.502;10.030;2023-10-31T04:54:06;98570.72;;;12.18
77728;BMP280;68312;53.502;10.030;2023-10-31T04:56:33;98565.84;;;12.20
77728;BMP280;68312;53.502;10.030;2023-10-31T04:58:58;98557.22;;;12.19
77728;BMP280;68312;53.502;10.030;2023-10-31T05:01:24;98551.19;;;12.19
77728;BMP280;68312;53.502;10.030;2023-10-31T05:03:49;98559.84;;;12.23
77728;BMP280;68312;53.502;10.030;2023-10-31T05:06:21;98555.31;;;12.23
77728;BMP280;68312;53.502;10.030;2023-10-31T05:08:48;98552.31;;;12.25
77728;BMP280;68312;53.502;10.030;2023-10-31T05:11:16;98548.56;;;12.26
77728;BMP280;68312;53.502;10.030;2023-10-31T05:13:43;98540.69;;;12.29
77728;BMP280;68312;53.502;10.030;2023-10-31T05:16:08;98535.78;;;12.28
77728;BMP280;68312;53.502;10.030;2023-10-31T05:18:36;98548.59;;;12.29
77728;BMP280;68312;53.502;10.030;2023-10-31T05:21:02;98541.00;;;12.31
77728;BMP280;68312;53.502;10.030;2023-10-31T05:23:27;98544.03;;;12.33
77728;BMP280;68312;53.502;10.030;2023-10-31T05:25:53;98554.56;;;12.33
77728;BMP280;68312;53.502;10.030;2023-10-31T05:28:18;98547.44;;;12.34
77728;BMP280;68312;53.502;10.030;2023-10-31T05:30:43;98542.19;;;12.34
77728;BMP280;68312;53.502;10.030;2023-10-31T05:33:09;98547.44;;;12.34
77728;BMP280;68312;53.502;10.030;2023-10-31T05:35:35;98552.69;;;12.34
77728;BMP280;68312;53.502;10.030;2023-10-31T05:38:00;98540.66;;;12.33
77728;BMP280;68312;53.502;10.030;2023-10-31T05:40:26;98544.03;;;12.33
77728;BMP280;68312;53.502;10.030;2023-10-31T05:42:52;98535.41;;;12.33
77728;BMP280;68312;53.502;10.030;2023-10-31T05:45:18;98537.63;;;12.31
77728;BMP280;68312;53.502;10.030;2023-10-31T05:47:43;98539.91;;;12.32
77728;BMP280;68312;53.502;10.030;2023-10-31T05:50:09;98538.03;;;12.33
77728;BMP280;68312;53.502;10.030;2023-10-31T05:52:34;98533.50;;;12.30
77728;BMP280;68312;53.502;10.030;2023-10-31T05:55:00;98533.50;;;12.30
77728;BMP280;68312;53.502;10.030;2023-10-31T05:57:25;98533.50;;;12.30
77728;BMP280;68312;53.502;10.030;2023-10-31T05:59:51;98524.13;;;12.29
77728;BMP280;68312;53.502;10.030;2023-10-31T06:02:16;98538.06;;;12.29
77728;BMP280;68312;53.502;10.030;2023-10-31T06:04:41;98536.53;;;12.28
77728;BMP280;68312;53.502;10.030;2023-10-31T06:07:07;98523.00;;;12.26
77728;BMP280;68312;53.502;10.030;2023-10-31T06:09:33;98526.75;;;12.25
77728;BMP280;68312;53.502;10.030;2023-10-31T06:12:01;98527.50;;;12.26
77728;BMP280;68312;53.502;10.030;2023-10-31T06:14:27;98530.16;;;12.26
77728;BMP280;68312;53.502;10.030;2023-10-31T06:16:53;98528.63;;;12.25
77728;BMP280;68312;53.502;10.030;2023-10-31T06:19:19;98524.13;;;12.25
77728;BMP280;68312;53.502;10.030;2023-10-31T06:21:44;98533.88;;;12.25
77728;BMP280;68312;53.502;10.030;2023-10-31T06:24:10;98533.53;;;12.23
77728;BMP280;68312;53.502;10.030;2023-10-31T06:26:36;98527.13;;;12.24
77728;BMP280;68312;53.502;10.030;2023-10-31T06:29:01;98530.91;;;12.23
77728;BMP280;68312;53.502;10.030;2023-10-31T06:31:27;98533.53;;;12.23
77728;BMP280;68312;53.502;10.030;2023-10-31T06:33:52;98530.91;;;12.23
77728;BMP280;68312;53.502;10.030;2023-10-31T06:36:18;98533.13;;;12.24
77728;BMP280;68312;53.502;10.030;2023-10-31T06:38:43;98522.25;;;12.26
77728;BMP280;68312;53.502;10.030;2023-10-31T06:41:08;98536.53;;;12.28
77728;BMP280;68312;53.502;10.030;2023-10-31T06:43:34;98533.13;;;12.31
77728;BMP280;68312;53.502;10.030;2023-10-31T06:46:00;98525.25;;;12.35
77728;BMP280;68312;53.502;10.030;2023-10-31T06:48:27;98522.25;;;12.36
77728;BMP280;68312;53.502;10.030;2023-10-31T06:50:53;98532.00;;;12.39
77728;BMP280;68312;53.502;10.030;2023-10-31T06:53:18;98532.75;;;12.40
77728;BMP280;68312;53.502;10.030;2023-10-31T06:55:43;98532.00;;;12.39
77728;BMP280;68312;53.502;10.030;2023-10-31T06:58:09;98523.38;;;12.42
77728;BMP280;68312;53.502;10.030;2023-10-31T07:00:34;98540.66;;;12.46
77728;BMP280;68312;53.502;10.030;2023-10-31T07:03:00;98537.25;;;12.53
77728;BMP280;68312;53.502;10.030;2023-10-31T07:05:31;98544.78;;;12.51
77728;BMP280;68312;53.502;10.030;2023-10-31T07:07:56;98538.41;;;12.48
77728;BMP280;68312;53.502;10.030;2023-10-31T07:10:22;98539.88;;;12.46
77728;BMP280;68312;53.502;10.030;2023-10-31T07:12:47;98534.59;;;12.49
77728;BMP280;68312;53.502;10.030;2023-10-31T07:15:12;98543.66;;;12.48
77728;BMP280;68312;53.502;10.030;2023-10-31T07:17:38;98536.88;;;12.51
77728;BMP280;68312;53.502;10.030;2023-10-31T07:20:05;98556.84;;;12.48
77728;BMP280;68312;53.502;10.030;2023-10-31T07:22:31;98572.63;;;12.48
77728;BMP280;68312;53.502;10.030;2023-10-31T07:24:56;98593.31;;;12.46
77728;BMP280;68312;53.502;10.030;2023-10-31T07:27:24;98627.53;;;12.46
77728;BMP280;68312;53.502;10.030;2023-10-31T07:29:49;98657.59;;;12.49
77728;BMP280;68312;53.502;10.030;2023-10-31T07:32:15;98702.72;;;12.51
77728;BMP280;68312;53.502;10.030;2023-10-31T07:34:41;98762.13;;;12.42
77728;BMP280;68312;53.502;10.030;2023-10-31T07:37:09;98800.81;;;12.31
77728;BMP280;68312;53.502;10.030;2023-10-31T07:39:35;98822.97;;;12.23
77728;BMP280;68312;53.502;10.030;2023-10-31T07:42:00;98844.72;;;12.16
77728;BMP280;68312;53.502;10.030;2023-10-31T07:44:26;98870.28;;;12.13
77728;BMP280;68312;53.502;10.030;2023-10-31T07:46:51;98867.22;;;12.04
77728;BMP280;68312;53.502;10.030;2023-10-31T07:49:17;98865.66;;;11.92
77728;BMP280;68312;53.502;10.030;2023-10-31T07:51:42;98871.25;;;11.84
77728;BMP280;68312;53.502;10.030;2023-10-31T07:54:08;98873.09;;;11.80
77728;BMP280;68312;53.502;10.030;2023-10-31T07:56:34;98870.00;;;11.68
77728;BMP280;68312;53.502;10.030;2023-10-31T07:59:02;98875.28;;;11.68
77728;BMP280;68312;53.502;10.030;2023-10-31T08:01:27;98881.59;;;11.63
77728;BMP280;68312;53.502;10.030;2023-10-31T08:03:53;98880.44;;;11.58
77728;BMP280;68312;53.502;10.030;2023-10-31T08:06:19;98890.16;;;11.50
77728;BMP280;68312;53.502;10.030;2023-10-31T08:08:44;98900.94;;;11.38
77728;BMP280;68312;53.502;10.030;2023-10-31T08:11:10;98896.84;;;11.44
77728;BMP280;68312;53.502;10.030;2023-10-31T08:13:37;98896.81;;;11.37
77728;BMP280;68312;53.502;10.030;2023-10-31T08:16:04;98885.16;;;11.38
77728;BMP280;68312;53.502;10.030;2023-10-31T08:18:31;98896.41;;;11.35
77728;BMP280;68312;53.502;10.030;2023-10-31T08:20:56;98882.50;;;11.31
77728;BMP280;68312;53.502;10.030;2023-10-31T08:23:21;98894.53;;;11.32
77728;BMP280;68312;53.502;10.030;2023-10-31T08:25:47;98894.88;;;11.34
77728;BMP280;68312;53.502;10.030;2023-10-31T08:28:12;98896.03;;;11.33
77728;BMP280;68312;53.502;10.030;2023-10-31T08:30:38;98897.22;;;11.39
77728;BMP280;68312;53.502;10.030;2023-10-31T08:33:04;98908.06;;;11.38
77728;BMP280;68312;53.502;10.030;2023-10-31T08:35:29;98887.44;;;11.40
77728;BMP280;68312;53.502;10.030;2023-10-31T08:37:55;98905.84;;;11.40
77728;BMP280;68312;53.502;10.030;2023-10-31T08:40:20;98905.78;;;11.33
77728;BMP280;68312;53.502;10.030;2023-10-31T08:42:46;98892.19;;;11.28
77728;BMP280;68312;53.502;10.030;2023-10-31T08:45:11;98883.63;;;11.34
77728;BMP280;68312;53.502;10.030;2023-10-31T08:47:36;98904.28;;;11.35
77728;BMP280;68312;53.502;10.030;2023-10-31T08:50:02;98895.34;;;11.40
77728;BMP280;68312;53.502;10.030;2023-10-31T08:52:28;98897.63;;;11.48
77728;BMP280;68312;53.502;10.030;2023-10-31T08:54:53;98908.59;;;11.54
77728;BMP280;68312;53.502;10.030;2023-10-31T08:57:18;98907.16;;;11.63
77728;BMP280;68312;53.502;10.030;2023-10-31T08:59:44;98917.28;;;11.61
77728;BMP280;68312;53.502;10.030;2023-10-31T09:02:09;98915.84;;;11.67
77728;BMP280;68312;53.502;10.030;2023-10-31T09:04:37;98921.13;;;11.74
77728;BMP280;68312;53.502;10.030;2023-10-31T09:07:03;98911.06;;;11.83
77728;BMP280;68312;53.502;10.030;2023-10-31T09:09:28;98927.91;;;11.78
77728;BMP280;68312;53.502;10.030;2023-10-31T09:11:54;98934.72;;;11.79
77728;BMP280;68312;53.502;10.030;2023-10-31T09:14:20;98931.97;;;11.69
77728;BMP280;68312;53.502;10.030;2023-10-31T09:16:45;98934.25;;;11.67
77728;BMP280;68312;53.502;10.030;2023-10-31T09:19:10;98925.94;;;11.61
77728;BMP280;68312;53.502;10.030;2023-10-31T09:21:36;98934.09;;;11.50
77728;BMP280;68312;53.502;10.030;2023-10-31T09:24:02;98916.38;;;11.43
77728;BMP280;68312;53.502;10.030;2023-10-31T09:26:27;98908.06;;;11.38
77728;BMP280;68312;53.502;10.030;2023-10-31T09:28:53;98913.28;;;11.34
77728;BMP280;68312;53.502;10.030;2023-10-31T09:31:19;98925.66;;;11.34
77728;BMP280;68312;53.502;10.030;2023-10-31T09:33:47;98947.44;;;11.31
77728;BMP280;68312;53.502;10.030;2023-10-31T09:36:13;98948.94;;;11.32
77728;BMP280;68312;53.502;10.030;2023-10-31T09:38:39;98974.31;;;11.21
77728;BMP280;68312;53.502;10.030;2023-10-31T09:41:05;98986.28;;;11.15
77728;BMP280;68312;53.502;10.030;2023-10-31T09:43:31;99012.41;;;11.05
77728;BMP280;68312;53.502;10.030;2023-10-31T09:45:57;99009.31;;;10.96
77728;BMP280;68312;53.502;10.030;2023-10-31T09:48:26;99025.75;;;10.90
77728;BMP280;68312;53.502;10.030;2023-10-31T09:50:51;99038.38;;;10.81
77728;BMP280;68312;53.502;10.030;2023-10-31T09:53:19;99046.94;;;10.74
77728;BMP280;68312;53.502;10.030;2023-10-31T09:55:46;99056.59;;;10.71
77728;BMP280;68312;53.502;10.030;2023-10-31T09:58:12;99079.81;;;10.65
77728;BMP280;68312;53.502;10.030;2023-10-31T10:00:37;99092.09;;;10.61
77728;BMP280;68312;53.502;10.030;2023-10-31T10:03:06;99108.91;;;10.57
77728;BMP280;68312;53.502;10.030;2023-10-31T10:05:36;99115.66;;;10.58
77728;BMP280;68312;53.502;10.030;2023-10-31T10:08:03;99128.78;;;10.58
77728;BMP280;68312;53.502;10.030;2023-10-31T10:10:29;99132.53;;;10.57
77728;BMP280;68312;53.502;10.030;2023-10-31T10:12:56;99146.06;;;10.59
77728;BMP280;68312;53.502;10.030;2023-10-31T10:15:54;99151.00;;;10.64
77728;BMP280;68312;53.502;10.030;2023-10-31T10:18:33;99186.91;;;10.60
77728;BMP280;68312;53.502;10.030;2023-10-31T10:21:04;99193.69;;;10.61
77728;BMP280;68312;53.502;10.030;2023-10-31T10:23:31;99195.97;;;10.62
77728;BMP280;68312;53.502;10.030;2023-10-31T10:25:58;99208.41;;;10.65
77728;BMP280;68312;53.502;10.030;2023-10-31T10:28:26;99228.34;;;10.70
77728;BMP280;68312;53.502;10.030;2023-10-31T10:30:53;99236.75;;;10.78
77728;BMP280;68312;53.502;10.030;2023-10-31T10:33:19;99248.78;;;10.79
77728;BMP280;68312;53.502;10.030;2023-10-31T10:35:46;99266.06;;;10.80
77728;BMP280;68312;53.502;10.030;2023-10-31T10:38:13;99279.59;;;10.82
77728;BMP280;68312;53.502;10.030;2023-10-31T10:40:41;99284.88;;;10.86
77728;BMP280;68312;53.502;10.030;2023-10-31T10:43:20;99295.81;;;10.88
77728;BMP280;68312;53.502;10.030;2023-10-31T10:45:58;99296.94;;;10.87
77728;BMP280;68312;53.502;10.030;2023-10-31T10:48:28;99305.97;;;10.89
77728;BMP280;68312;53.502;10.030;2023-10-31T10:51:05;99318.81;;;10.94
77728;BMP280;68312;53.502;10.030;2023-10-31T10:53:44;99332.25;;;10.89
77728;BMP280;68312;53.502;10.030;2023-10-31T10:56:25;99339.81;;;10.94
77728;BMP280;68312;53.502;10.030;2023-10-31T10:59:03;99365.41;;;10.97
77728;BMP280;68312;53.502;10.030;2023-10-31T11:01:40;99374.78;;;10.98
77728;BMP280;68312;53.502;10.030;2023-10-31T11:04:07;99389.44;;;10.99
77728;BMP280;68312;53.502;10.030;2023-10-31T11:06:33;99396.28;;;11.03
77728;BMP280;68312;53.502;10.030;2023-10-31T11:09:00;99390.94;;;11.00
77728;BMP280;68312;53.502;10.030;2023-10-31T11:11:26;99408.16;;;10.98
77728;BMP280;68312;53.502;10.030;2023-10-31T11:13:52;99408.91;;;10.98
77728;BMP280;68312;53.502;10.030;2023-10-31T11:16:41;99414.72;;;11.07
77728;BMP280;68312;53.502;10.030;2023-10-31T11:19:16;99427.53;;;11.08
77728;BMP280;68312;53.502;10.030;2023-10-31T11:21:58;99433.94;;;11.11
77728;BMP280;68312;53.502;10.030;2023-10-31T11:24:31;99446.31;;;11.10
77728;BMP280;68312;53.502;10.030;2023-10-31T11:26:59;99440.75;;;11.12
77728;BMP280;68312;53.502;10.030;2023-10-31T11:29:26;99456.53;;;11.15
77728;BMP280;68312;53.502;10.030;2023-10-31T11:31:54;99467.19;;;11.22
77728;BMP280;68312;53.502;10.030;2023-10-31T11:34:21;99492.69;;;11.22
77728;BMP280;68312;53.502;10.030;2023-10-31T11:36:46;99492.91;;;11.32
77728;BMP280;68312;53.502;10.030;2023-10-31T11:39:17;99488.34;;;11.48
77728;BMP280;68312;53.502;10.030;2023-10-31T11:41:55;99509.41;;;11.51
77728;BMP280;68312;53.502;10.030;2023-10-31T11:44:28;99511.91;;;11.44
77728;BMP280;68312;53.502;10.030;2023-10-31T11:46:53;99510.59;;;11.54
77728;BMP280;68312;53.502;10.030;2023-10-31T11:49:47;99511.59;;;11.49
77728;BMP280;68312;53.502;10.030;2023-10-31T11:52:19;99506.50;;;11.56
77728;BMP280;68312;53.502;10.030;2023-10-31T11:54:44;99554.09;;;11.51
77728;BMP280;68312;53.502;10.030;2023-10-31T11:57:10;99545.78;;;11.49
77728;BMP280;68312;53.502;10.030;2023-10-31T11:59:39;99549.66;;;11.55
77728;BMP280;68312;53.502;10.030;2023-10-31T12:02:14;99540.78;;;11.63
77728;BMP280;68312;53.502;10.030;2023-10-31T12:04:40;99542.97;;;11.80
77728;BMP280;68312;53.502;10.030;2023-10-31T12:07:06;99567.59;;;11.68
77728;BMP280;68312;53.502;10.030;2023-10-31T12:09:31;99571.38;;;11.71
77728;BMP280;68312;53.502;10.030;2023-10-31T12:11:57;99580.13;;;11.75
77728;BMP280;68312;53.502;10.030;2023-10-31T12:14:23;99568.22;;;11.84
77728;BMP280;68312;53.502;10.030;2023-10-31T12:16:48;99571.97;;;11.83
77728;BMP280;68312;53.502;10.030;2023-10-31T12:19:13;99593.06;;;11.87
77728;BMP280;68312;53.502;10.030;2023-10-31T12:21:44;99593.34;;;12.00
77728;BMP280;68312;53.502;10.030;2023-10-31T12:24:13;99613.53;;;11.96
77728;BMP280;68312;53.502;10.030;2023-10-31T12:26:40;99632.91;;;11.85
77728;BMP280;68312;53.502;10.030;2023-10-31T12:31:54;99629.88;;;12.05
77728;BMP280;68312;53.502;10.030;2023-10-31T12:34:24;99657.97;;;11.79
77728;BMP280;68312;53.502;10.030;2023-10-31T12:36:51;99644.59;;;11.69
77728;BMP280;68312;53.502;10.030;2023-10-31T12:39:21;99649.16;;;11.72
77728;BMP280;68312;53.502;10.030;2023-10-31T12:41:49;99652.59;;;11.76
77728;BMP280;68312;53.502;10.030;2023-10-31T12:44:22;99666.00;;;11.67
77728;BMP280;68312;53.502;10.030;2023-10-31T12:46:49;99660.25;;;11.62
77728;BMP280;68312;53.502;10.030;2023-10-31T12:49:19;99664.69;;;11.58
77728;BMP280;68312;53.502;10.030;2023-10-31T12:51:58;99649.34;;;11.45
77728;BMP280;68312;53.502;10.030;2023-10-31T12:57:02;99641.22;;;11.50
77728;BMP280;68312;53.502;10.030;2023-10-31T12:59:32;99666.88;;;11.56
77728;BMP280;68312;53.502;10.030;2023-10-31T13:01:59;99658.00;;;11.64
77728;BMP280;68312;53.502;10.030;2023-10-31T13:04:29;99676.56;;;11.52
77728;BMP280;68312;53.502;10.030;2023-10-31T13:07:00;99678.91;;;11.57
77728;BMP280;68312;53.502;10.030;2023-10-31T13:09:35;99681.34;;;11.65
77728;BMP280;68312;53.502;10.030;2023-10-31T13:12:04;99690.97;;;11.77
77728;BMP280;68312;53.502;10.030;2023-10-31T13:14:31;99687.84;;;11.90
77728;BMP280;68312;53.502;10.030;2023-10-31T13:16:57;99704.38;;;11.90
77728;BMP280;68312;53.502;10.030;2023-10-31T13:19:22;99718.53;;;12.01
77728;BMP280;68312;53.502;10.030;2023-10-31T13:21:48;99712.34;;;12.13
77728;BMP280;68312;53.502;10.030;2023-10-31T13:24:14;99722.31;;;12.04
77728;BMP280;68312;53.502;10.030;2023-10-31T13:26:39;99739.13;;;11.99
77728;BMP280;68312;53.502;10.030;2023-10-31T13:29:05;99735.75;;;11.80
77728;BMP280;68312;53.502;10.030;2023-10-31T13:31:30;99737.06;;;11.71
77728;BMP280;68312;53.502;10.030;2023-10-31T13:33:55;99722.81;;;11.72
77728;BMP280;68312;53.502;10.030;2023-10-31T13:36:21;99714.09;;;11.68
77728;BMP280;68312;53.502;10.030;2023-10-31T13:38:47;99711.31;;;11.61
77728;BMP280;68312;53.502;10.030;2023-10-31T13:41:14;99709.06;;;11.44
77728;BMP280;68312;53.502;10.030;2023-10-31T13:43:39;99693.03;;;11.34
77728;BMP280;68312;53.502;10.030;2023-10-31T13:46:05;99678.94;;;11.23
77728;BMP280;68312;53.502;10.030;2023-10-31T13:48:31;99674.16;;;11.10
77728;BMP280;68312;53.502;10.030;2023-10-31T13:50:56;99663.38;;;11.00
77728;BMP280;68312;53.502;10.030;2023-10-31T13:53:22;99691.34;;;10.77
77728;BMP280;68312;53.502;10.030;2023-10-31T13:55:47;99694.91;;;10.54
77728;BMP280;68312;53.502;10.030;2023-10-31T13:58:14;99715.13;;;10.38